岡山グライダークラブ活動状況掲示板あなたは無料カウンター人目の訪問者です

岡山グライダークラブ
岡山市浦安南町639-1 岡南飛行場
 使用機:シャイベ式 SF25C型 ファルケ   JA2330
      ヴァレンティン式17E型 タイフーン  JA2342
 練習日:毎日曜日  クラブルーム:電話 086-265-1810
この掲示板は岡山グライダークラブの活動状況をお知らせする掲示板です。
!!!この掲示板は投稿規制をしています。!!!
クラブ関連各種情報は 岡山グライダークラブクラブルーム      を       .
  ブリーフイング情報は  岡山グライダークラブブリーフィングルーム  をご覧下さい。 .
※写真はクリックすると拡大して見ることが出来ます。
岡南飛行場へのアクセス等は 岡南飛行場管理事務所 をご覧ください。
クラブの ホームページ ができました。

 
10月14日
by OGC at 2018/10/14(日) 23:05:06 No.20181014230339  削除コメント
1187 x 890 x 92,885バイト <この画像は大きいので別画面で表示します>
No.1

10月14日
本日の参加者
  会員      10名
  その他      1名


@本日の様子




METAR
RJBK 140100Z 18003KT 140V210 40KM FEW020CU 17/13 Q1021 A3017
RKOB 140100Z VRB02KT 9999 FEW025 19/13 Q1021
RJOT 140100Z 32004KT 260V010 9999 FEW025 SCT/// 19/14 Q1021
RJOA 12003KT 080V190 9999 FEW020 BKN/// 18/10 Q1021
TAF
RJOB 132313Z 1400/1506 01005KT 9999 FEW025 SCT045
RJOT 132305Z 1400/1506 33004KT 9999 FEW025
     BECMG 1408/1410 15006KT
RJOA 132306Z 1400/1506 15004KT 9999 FEW030 SCT045


本日は穏やかな天候で、耐空検査が完了したファルケはいつも通り訓練フライトに大活躍でした。
一方、タイフーンは社内検査が終了し、来週の耐空検査が済めば通常訓練となります。



解散    18:00

1番機  12:10離陸 撤収機  16:45着陸 

SF25C JA2330 ファルケ     07Flt.2h40min  
17E   JA2342 タイフーン    01Flt.0h20min  
合計                    08Flt.3h00min

    << 戻る || ホームページ || 最新の掲示板へ